Time;durP1;ratioP1;P1;durP2;ratioP2;P2;SDS_P1;SDS_P2;PMS_P1;PMS_P2;Temp;Humidity;BMP_temperature;BMP_pressure;BME280_temperature;BME280_humidity;BME280_pressure;Samples;Min_cycle;Max_cycle;Signal;HPM_P1;HPM_P2
2023/11/15 00:01:55;;;;;;;11.93;2.90;;;8.90;99.90;;;;;;7377690;19;20049;-74
2023/11/15 00:04:21;;;;;;;12.02;2.75;;;8.90;99.90;;;;;;7375021;19;20020;-74
2023/11/15 00:06:47;;;;;;;8.50;2.38;;;8.90;99.90;;;;;;7377376;19;21491;-74
2023/11/15 00:09:14;;;;;;;12.90;2.70;;;8.90;99.90;;;;;;7375253;19;20367;-74
2023/11/15 00:11:40;;;;;;;10.98;2.85;;;8.80;99.90;;;;;;7376865;19;20022;-73
2023/11/15 00:14:07;;;;;;;13.23;2.65;;;8.80;99.90;;;;;;7374195;19;20026;-73
2023/11/15 00:16:33;;;;;;;17.27;2.90;;;8.80;99.90;;;;;;7376826;19;20681;-74
2023/11/15 00:19:00;;;;;;;9.75;2.50;;;8.80;99.90;;;;;;7379165;19;20022;-72
2023/11/15 00:21:26;;;;;;;8.77;2.33;;;8.80;99.90;;;;;;7379628;19;20067;-73
2023/11/15 00:23:52;;;;;;;10.27;2.83;;;8.80;99.90;;;;;;7376694;19;20355;-73
2023/11/15 00:26:19;;;;;;;13.75;3.33;;;8.80;99.90;;;;;;7375587;19;20022;-73
2023/11/15 00:28:55;;;;;;;12.70;2.70;;;8.90;99.90;;;;;;7377170;19;20413;-71
2023/11/15 00:31:24;;;;;;;11.15;2.53;;;8.90;99.90;;;;;;7375744;19;20086;-70
2023/11/15 00:33:51;;;;;;;16.55;4.00;;;8.90;99.90;;;;;;7376615;19;20018;-72
2023/11/15 00:36:19;;;;;;;11.98;3.03;;;8.90;99.90;;;;;;7375559;19;20562;-73
2023/11/15 00:38:52;;;;;;;13.88;2.40;;;8.90;99.90;;;;;;7374213;19;20400;-72
2023/11/15 00:41:18;;;;;;;9.38;2.08;;;8.90;99.90;;;;;;7372683;19;20777;-73
2023/11/15 00:43:45;;;;;;;9.50;2.33;;;8.90;99.90;;;;;;7376573;19;20026;-73
2023/11/15 00:46:15;;;;;;;10.27;2.58;;;8.90;99.90;;;;;;7377451;19;20018;-71
2023/11/15 00:48:42;;;;;;;13.13;2.65;;;8.90;99.90;;;;;;7377677;19;20014;-70
2023/11/15 00:51:08;;;;;;;9.18;2.58;;;8.90;99.90;;;;;;7376353;19;20105;-71
2023/11/15 00:53:34;;;;;;;13.30;3.45;;;9.00;99.90;;;;;;7378785;19;20029;-70
2023/11/15 00:56:01;;;;;;;9.48;2.40;;;9.00;99.90;;;;;;7373640;19;20015;-70
2023/11/15 00:58:29;;;;;;;14.57;2.97;;;9.00;99.90;;;;;;7377903;19;20082;-70
2023/11/15 01:01:06;;;;;;;12.30;2.85;;;9.00;99.90;;;;;;7375797;19;20018;-70
2023/11/15 01:03:32;;;;;;;8.82;2.63;;;9.00;99.90;;;;;;7376600;19;20150;-70
2023/11/15 01:06:01;;;;;;;8.80;3.17;;;9.00;99.90;;;;;;7376682;19;20022;-71
2023/11/15 01:08:27;;;;;;;12.48;3.20;;;9.00;99.90;;;;;;7379606;19;20045;-71
2023/11/15 01:10:54;;;;;;;14.05;3.25;;;9.00;99.90;;;;;;7375401;19;20365;-71
2023/11/15 01:13:22;;;;;;;8.70;3.58;;;9.00;99.90;;;;;;7376867;19;20018;-71
2023/11/15 01:15:50;;;;;;;10.00;3.13;;;9.00;99.90;;;;;;7378372;19;20022;-71
2023/11/15 01:18:17;;;;;;;8.68;3.08;;;9.00;99.90;;;;;;7377984;19;20471;-71
2023/11/15 01:20:43;;;;;;;11.73;2.92;;;9.00;99.90;;;;;;7377406;19;20029;-71
2023/11/15 01:23:12;;;;;;;11.40;3.78;;;9.00;99.90;;;;;;7376541;19;20853;-70
2023/11/15 01:25:39;;;;;;;9.85;3.28;;;9.00;99.90;;;;;;7373592;19;20022;-71
2023/11/15 01:28:05;;;;;;;7.70;2.75;;;9.00;99.90;;;;;;7372385;19;20027;-71
2023/11/15 01:30:32;;;;;;;8.43;2.95;;;9.10;99.90;;;;;;7373633;19;20564;-71
2023/11/15 01:32:58;;;;;;;10.98;3.30;;;9.00;99.90;;;;;;7375046;19;20019;-71
2023/11/15 01:35:27;;;;;;;10.05;2.60;;;9.10;99.90;;;;;;7375444;19;20029;-71
2023/11/15 01:37:54;;;;;;;6.55;2.53;;;9.00;99.90;;;;;;7370537;19;20025;-72
2023/11/15 01:40:21;;;;;;;4.57;1.75;;;9.10;99.90;;;;;;7377988;19;20485;-73
2023/11/15 01:42:48;;;;;;;4.22;1.30;;;9.00;99.90;;;;;;7376962;19;20022;-75
2023/11/15 01:45:16;;;;;;;5.03;1.95;;;9.00;99.90;;;;;;7372131;19;20026;-74
2023/11/15 01:47:43;;;;;;;6.65;1.70;;;9.00;99.90;;;;;;7375356;19;20018;-74
2023/11/15 01:50:13;;;;;;;9.43;1.98;;;9.00;99.90;;;;;;7375508;19;20457;-74
2023/11/15 01:52:45;;;;;;;8.18;1.42;;;9.00;99.90;;;;;;7374965;19;20034;-74
2023/11/15 01:55:14;;;;;;;7.07;2.05;;;9.00;99.90;;;;;;7371655;19;20053;-75
2023/11/15 01:57:41;;;;;;;7.32;2.28;;;9.00;99.90;;;;;;7369164;19;20022;-74
2023/11/15 02:00:10;;;;;;;7.25;1.60;;;9.00;99.90;;;;;;7374238;19;20023;-75
2023/11/15 02:02:41;;;;;;;6.72;1.65;;;9.00;99.90;;;;;;7372731;19;20564;-74
2023/11/15 02:05:13;;;;;;;8.50;1.42;;;9.00;99.90;;;;;;7371894;19;20028;-74
2023/11/15 02:07:43;;;;;;;6.18;1.77;;;9.00;99.90;;;;;;7374354;19;20082;-74
2023/11/15 02:10:13;;;;;;;7.32;2.22;;;8.90;99.90;;;;;;7373214;19;20010;-75
2023/11/15 02:12:39;;;;;;;10.52;2.20;;;8.90;99.90;;;;;;7371216;19;20021;-75
2023/11/15 02:15:07;;;;;;;7.30;2.42;;;8.90;99.90;;;;;;7374165;19;20750;-74
2023/11/15 02:17:34;;;;;;;6.32;2.63;;;8.90;99.90;;;;;;7366581;19;20377;-72
2023/11/15 02:20:04;;;;;;;8.02;2.90;;;8.90;99.90;;;;;;7377237;19;20018;-72
2023/11/15 02:22:32;;;;;;;11.20;3.05;;;8.90;99.90;;;;;;7374651;19;20460;-72
2023/11/15 02:24:59;;;;;;;8.13;2.90;;;8.80;99.90;;;;;;7377713;19;20043;-72
2023/11/15 02:27:29;;;;;;;8.52;3.00;;;8.80;99.90;;;;;;7378365;19;20454;-72
2023/11/15 02:29:55;;;;;;;7.60;2.90;;;8.80;99.90;;;;;;7376745;19;20022;-72
2023/11/15 02:32:23;;;;;;;10.57;3.42;;;8.80;99.90;;;;;;7374688;19;20054;-72
2023/11/15 02:34:49;;;;;;;10.10;3.42;;;8.80;99.90;;;;;;7375564;19;20081;-71
2023/11/15 02:37:16;;;;;;;6.90;3.05;;;8.80;99.90;;;;;;7378041;19;20082;-71
2023/11/15 02:39:43;;;;;;;10.45;3.13;;;8.80;99.90;;;;;;7383707;19;20508;-69
2023/11/15 02:42:11;;;;;;;12.32;3.50;;;8.80;99.90;;;;;;7379563;19;20023;-72
2023/11/15 02:44:41;;;;;;;12.55;3.75;;;8.80;99.90;;;;;;7386135;19;20026;-71
2023/11/15 02:47:08;;;;;;;13.05;3.30;;;8.70;99.90;;;;;;7380090;19;20026;-72
2023/11/15 02:49:36;;;;;;;13.55;3.78;;;8.80;99.90;;;;;;7381430;19;20499;-72
2023/11/15 02:52:04;;;;;;;11.10;3.45;;;8.80;99.90;;;;;;7383034;19;20021;-76
2023/11/15 02:54:30;;;;;;;10.15;3.38;;;8.80;99.90;;;;;;7383116;19;20359;-71
2023/11/15 02:56:59;;;;;;;13.32;3.30;;;8.80;99.90;;;;;;7380299;19;20355;-75
2023/11/15 02:59:25;;;;;;;11.73;3.50;;;8.80;99.90;;;;;;7384487;19;20018;-71
2023/11/15 03:01:51;;;;;;;12.02;3.17;;;8.80;99.90;;;;;;7381667;19;20059;-75
2023/11/15 03:04:18;;;;;;;6.55;2.88;;;8.80;99.90;;;;;;7379245;19;20768;-76
2023/11/15 03:06:44;;;;;;;12.98;3.13;;;8.80;99.90;;;;;;7379555;19;20014;-75
2023/11/15 03:09:10;;;;;;;12.68;3.58;;;8.70;99.90;;;;;;7379710;19;20022;-75
2023/11/15 03:11:37;;;;;;;12.75;2.90;;;8.70;99.90;;;;;;7380036;19;20074;-75
2023/11/15 03:14:03;;;;;;;9.50;2.72;;;8.60;99.90;;;;;;7378051;19;20078;-75
2023/11/15 03:16:31;;;;;;;12.48;3.00;;;8.60;99.90;;;;;;7379220;19;20529;-75
2023/11/15 03:19:00;;;;;;;8.60;2.92;;;8.50;99.90;;;;;;7378840;19;20018;-76
2023/11/15 03:21:27;;;;;;;11.77;2.80;;;8.50;99.90;;;;;;7378456;19;20010;-75
2023/11/15 03:23:53;;;;;;;8.88;2.70;;;8.50;99.90;;;;;;7373657;19;20022;-75
2023/11/15 03:26:19;;;;;;;11.52;3.58;;;8.50;99.90;;;;;;7378912;19;20043;-75
2023/11/15 03:28:45;;;;;;;9.30;2.60;;;8.50;99.90;;;;;;7382665;19;20075;-75
2023/11/15 03:31:12;;;;;;;14.50;2.83;;;8.40;99.90;;;;;;7378374;19;20006;-72
2023/11/15 03:33:43;;;;;;;7.80;2.38;;;8.40;99.90;;;;;;7383143;19;20014;-75
2023/11/15 03:36:09;;;;;;;7.90;2.60;;;8.40;99.90;;;;;;7377813;19;20588;-75
2023/11/15 03:38:37;;;;;;;9.82;2.53;;;8.40;99.90;;;;;;7379645;19;20069;-75
2023/11/15 03:41:04;;;;;;;9.32;2.65;;;8.30;99.90;;;;;;7375687;19;20039;-75
2023/11/15 03:43:31;;;;;;;9.10;2.60;;;8.30;99.90;;;;;;7382077;19;20414;-75
2023/11/15 03:45:58;;;;;;;12.88;2.72;;;8.30;99.90;;;;;;7378821;19;20014;-72
2023/11/15 03:48:27;;;;;;;11.48;2.97;;;8.30;99.90;;;;;;7381761;19;20450;-72
2023/11/15 03:50:53;;;;;;;7.97;2.38;;;8.30;99.90;;;;;;7381904;19;20097;-72
2023/11/15 03:53:19;;;;;;;7.65;2.45;;;8.30;99.90;;;;;;7382384;19;20494;-72
2023/11/15 03:55:49;;;;;;;7.43;2.53;;;8.30;99.90;;;;;;7378065;19;20022;-76
2023/11/15 03:58:17;;;;;;;8.93;2.63;;;8.30;99.90;;;;;;7378571;19;20022;-71
2023/11/15 04:00:44;;;;;;;8.27;2.85;;;8.30;99.90;;;;;;7381839;19;20039;-73
2023/11/15 04:03:11;;;;;;;9.07;2.55;;;8.30;99.90;;;;;;7381592;19;20014;-72
2023/11/15 04:05:39;;;;;;;11.10;2.97;;;8.30;99.90;;;;;;7383241;19;20030;-72
2023/11/15 04:08:08;;;;;;;9.63;2.38;;;8.30;99.90;;;;;;7379845;19;20030;-72
2023/11/15 04:10:38;;;;;;;11.90;2.97;;;8.30;99.90;;;;;;7380565;19;20493;-72
2023/11/15 04:13:07;;;;;;;15.60;2.90;;;8.30;99.90;;;;;;7378397;19;20614;-75
2023/11/15 04:15:34;;;;;;;12.77;3.10;;;8.30;99.90;;;;;;7379973;19;20014;-75
2023/11/15 04:18:01;;;;;;;8.15;2.80;;;8.20;99.90;;;;;;7372847;19;20070;-69
2023/11/15 04:20:27;;;;;;;8.43;2.92;;;8.20;99.90;;;;;;7375549;19;20022;-73
2023/11/15 04:22:53;;;;;;;6.82;2.45;;;8.10;99.90;;;;;;7374994;19;20026;-74
2023/11/15 04:25:20;;;;;;;13.77;3.42;;;8.00;99.90;;;;;;7375718;19;20020;-72
2023/11/15 04:27:47;;;;;;;10.80;2.72;;;8.00;99.90;;;;;;7379129;19;20562;-71
2023/11/15 04:30:15;;;;;;;12.85;2.97;;;8.00;99.90;;;;;;7376504;19;20026;-72
2023/11/15 04:32:43;;;;;;;10.55;2.83;;;7.90;99.90;;;;;;7377977;19;20374;-72
2023/11/15 04:35:09;;;;;;;13.57;2.95;;;7.90;99.90;;;;;;7376492;19;21093;-72
2023/11/15 04:37:36;;;;;;;10.70;3.25;;;7.80;99.90;;;;;;7378405;19;20490;-72
2023/11/15 04:40:04;;;;;;;9.25;3.38;;;7.80;99.90;;;;;;7376298;19;20026;-72
2023/11/15 04:42:30;;;;;;;10.18;3.33;;;7.80;99.90;;;;;;7378213;19;20023;-71
2023/11/15 04:44:57;;;;;;;7.68;3.15;;;7.70;99.90;;;;;;7378446;19;20078;-72
2023/11/15 04:47:25;;;;;;;14.40;3.17;;;7.70;99.90;;;;;;7379802;19;20869;-71
2023/11/15 04:49:54;;;;;;;8.55;2.70;;;7.70;99.90;;;;;;7371001;19;20020;-74
2023/11/15 04:52:21;;;;;;;11.52;3.67;;;7.70;99.90;;;;;;7374670;19;20034;-75
2023/11/15 04:54:47;;;;;;;8.90;2.50;;;7.70;99.90;;;;;;7370265;19;20019;-74
2023/11/15 04:57:15;;;;;;;9.85;3.25;;;7.60;99.90;;;;;;7374867;19;20014;-74
2023/11/15 04:59:42;;;;;;;7.63;2.60;;;7.70;99.90;;;;;;7372725;19;20014;-74
2023/11/15 05:02:10;;;;;;;15.95;3.40;;;7.70;99.90;;;;;;7374355;19;20026;-74
2023/11/15 05:04:37;;;;;;;13.95;3.17;;;7.70;99.90;;;;;;7375004;19;20481;-74
2023/11/15 05:07:04;;;;;;;13.98;2.83;;;7.70;99.90;;;;;;7376180;19;20014;-71
2023/11/15 05:09:30;;;;;;;8.25;3.05;;;7.70;99.90;;;;;;7374909;19;20082;-72
2023/11/15 05:11:56;;;;;;;12.60;3.70;;;7.70;99.90;;;;;;7374360;19;20014;-72
2023/11/15 05:14:22;;;;;;;11.82;3.28;;;7.80;99.90;;;;;;7373057;19;20023;-71
2023/11/15 05:16:49;;;;;;;10.18;3.10;;;7.80;99.90;;;;;;7378481;19;20014;-72
2023/11/15 05:19:15;;;;;;;12.95;2.92;;;7.80;99.90;;;;;;7372975;19;20788;-72
2023/11/15 05:21:41;;;;;;;10.90;3.78;;;7.70;99.90;;;;;;7375056;19;20026;-72
2023/11/15 05:24:09;;;;;;;16.02;3.30;;;7.70;99.90;;;;;;7369512;19;20014;-71
2023/11/15 05:26:35;;;;;;;8.60;2.67;;;7.60;99.90;;;;;;7374950;19;20031;-71
2023/11/15 05:29:01;;;;;;;9.73;3.50;;;7.60;99.90;;;;;;7373946;19;20011;-72
2023/11/15 05:31:27;;;;;;;10.23;3.28;;;7.60;99.90;;;;;;7363494;19;20018;-73
2023/11/15 05:33:55;;;;;;;14.73;3.20;;;7.60;99.90;;;;;;7371604;19;20398;-73
2023/11/15 05:36:24;;;;;;;17.35;3.50;;;7.60;99.90;;;;;;7371968;19;20022;-74
2023/11/15 05:38:50;;;;;;;13.00;3.70;;;7.60;99.90;;;;;;7371936;19;20166;-73
2023/11/15 05:41:16;;;;;;;14.77;3.50;;;7.60;99.90;;;;;;7372224;19;20022;-72
2023/11/15 05:43:42;;;;;;;11.40;3.08;;;7.60;99.90;;;;;;7375984;19;20054;-74
2023/11/15 05:46:09;;;;;;;12.88;3.40;;;7.60;99.90;;;;;;7374356;19;20010;-75
2023/11/15 05:48:35;;;;;;;10.75;3.33;;;7.60;99.90;;;;;;7376209;19;20019;-73
2023/11/15 05:51:03;;;;;;;13.55;3.10;;;7.60;99.90;;;;;;7376679;19;20081;-73
2023/11/15 05:53:29;;;;;;;11.68;3.50;;;7.60;99.90;;;;;;7381471;19;20768;-73
2023/11/15 05:55:55;;;;;;;14.80;3.15;;;7.70;99.90;;;;;;7375140;19;20014;-73
2023/11/15 05:58:21;;;;;;;11.13;3.15;;;7.70;99.90;;;;;;7377355;19;20018;-76
2023/11/15 06:00:51;;;;;;;13.43;3.67;;;7.70;99.90;;;;;;7378780;19;20033;-72
2023/11/15 06:03:18;;;;;;;13.40;3.42;;;7.80;99.90;;;;;;7378716;19;20014;-73
2023/11/15 06:05:44;;;;;;;15.15;6.63;;;7.80;99.90;;;;;;7375964;19;20018;-61
2023/11/15 06:08:14;;;;;;;7.30;3.40;;;7.90;99.90;;;;;;7375415;19;20073;-73
2023/11/15 06:10:40;;;;;;;11.32;3.80;;;7.90;99.90;;;;;;7374916;19;20017;-73
2023/11/15 06:13:07;;;;;;;13.50;3.35;;;7.90;99.90;;;;;;7387121;19;20022;-73
2023/11/15 06:15:33;;;;;;;16.73;4.07;;;7.90;99.90;;;;;;7390280;19;20022;-75
2023/11/15 06:18:00;;;;;;;16.33;3.63;;;7.90;99.90;;;;;;7388498;19;20209;-76
2023/11/15 06:20:26;;;;;;;10.63;4.00;;;7.90;99.90;;;;;;7389416;19;20368;-75
2023/11/15 06:22:52;;;;;;;12.23;3.63;;;7.90;99.90;;;;;;7390214;19;20014;-75
2023/11/15 06:25:19;;;;;;;11.27;3.50;;;8.00;99.90;;;;;;7388392;19;20025;-75
2023/11/15 06:27:45;;;;;;;9.93;3.58;;;8.00;99.90;;;;;;7390047;19;20026;-75
2023/11/15 06:30:16;;;;;;;13.43;3.40;;;8.00;99.90;;;;;;7385607;19;20018;-75
2023/11/15 06:32:44;;;;;;;15.05;4.03;;;8.00;99.90;;;;;;7390027;19;20018;-74
2023/11/15 06:35:18;;;;;;;14.90;3.90;;;8.10;99.90;;;;;;7388176;19;20033;-75
2023/11/15 06:37:48;;;;;;;14.43;4.70;;;8.10;99.90;;;;;;7388197;19;20018;-74
2023/11/15 06:40:15;;;;;;;16.35;4.68;;;8.10;99.90;;;;;;7386849;19;20021;-72
2023/11/15 06:42:42;;;;;;;14.65;4.47;;;8.10;99.90;;;;;;7387042;19;20074;-74
2023/11/15 06:45:09;;;;;;;18.42;5.13;;;8.20;99.90;;;;;;7386047;19;20379;-72
2023/11/15 06:47:36;;;;;;;14.95;5.80;;;8.20;99.90;;;;;;7387982;19;20031;-73
2023/11/15 06:50:04;;;;;;;15.18;4.80;;;8.20;99.90;;;;;;7386856;19;20068;-74
2023/11/15 06:52:32;;;;;;;16.27;4.93;;;8.20;99.90;;;;;;7387371;19;20858;-73
2023/11/15 06:54:59;;;;;;;12.82;5.10;;;8.20;99.90;;;;;;7385942;19;20484;-73
2023/11/15 06:57:26;;;;;;;14.13;4.32;;;8.30;99.90;;;;;;7385135;19;20413;-73
2023/11/15 06:59:53;;;;;;;23.20;5.50;;;8.20;99.90;;;;;;7385780;19;20037;-73
2023/11/15 07:02:20;;;;;;;13.90;4.63;;;8.20;99.90;;;;;;7386976;19;20014;-73
2023/11/15 07:04:47;;;;;;;15.63;4.25;;;8.20;99.90;;;;;;7387677;19;20014;-71
2023/11/15 07:07:13;;;;;;;14.02;4.30;;;8.10;99.90;;;;;;7388302;19;20093;-67
2023/11/15 07:09:39;;;;;;;15.70;4.80;;;8.10;99.90;;;;;;7385849;19;20015;-72
2023/11/15 07:12:06;;;;;;;19.63;6.50;;;8.10;99.90;;;;;;7385535;19;20018;-73
2023/11/15 07:14:34;;;;;;;25.52;6.53;;;8.10;99.90;;;;;;7383731;19;20022;-72
2023/11/15 07:17:00;;;;;;;25.10;7.03;;;8.20;99.90;;;;;;7386224;19;20029;-74
2023/11/15 07:19:27;;;;;;;23.63;6.53;;;8.20;99.90;;;;;;7384782;19;20014;-74
2023/11/15 07:21:54;;;;;;;23.83;6.75;;;8.20;99.90;;;;;;7388151;19;20021;-75
2023/11/15 07:24:21;;;;;;;16.73;5.25;;;8.20;99.90;;;;;;7378599;19;20374;-75
2023/11/15 07:26:47;;;;;;;25.15;6.38;;;8.30;99.90;;;;;;7377033;19;20497;-74
2023/11/15 07:29:19;;;;;;;20.35;5.65;;;8.30;99.90;;;;;;7376890;19;20374;-74
2023/11/15 07:31:51;;;;;;;15.93;5.47;;;8.30;99.90;;;;;;7381865;19;20018;-68
2023/11/15 07:34:22;;;;;;;21.42;5.07;;;8.30;99.90;;;;;;7382788;19;20022;-74
2023/11/15 07:36:50;;;;;;;18.50;5.10;;;8.30;99.90;;;;;;7377561;19;20032;-74
2023/11/15 07:39:16;;;;;;;18.25;5.43;;;8.40;99.90;;;;;;7377012;19;22047;-74
2023/11/15 07:41:42;;;;;;;18.17;5.50;;;8.40;99.90;;;;;;7376357;19;20058;-74
2023/11/15 07:44:09;;;;;;;14.63;5.57;;;8.50;99.90;;;;;;7378559;19;20025;-74
2023/11/15 07:46:36;;;;;;;22.00;5.90;;;8.50;99.90;;;;;;7377927;19;20763;-73
2023/11/15 07:49:02;;;;;;;19.63;6.15;;;8.50;99.90;;;;;;7377319;19;20039;-74
2023/11/15 07:51:29;;;;;;;22.02;5.60;;;8.60;99.90;;;;;;7377122;19;20038;-75
2023/11/15 07:53:56;;;;;;;13.68;5.70;;;8.70;99.90;;;;;;7382171;19;20047;-74
2023/11/15 07:56:23;;;;;;;22.73;7.15;;;8.70;99.90;;;;;;7376438;19;20018;-74
2023/11/15 07:58:50;;;;;;;18.42;6.70;;;8.80;99.90;;;;;;7374147;19;20026;-74
2023/11/15 08:01:16;;;;;;;22.00;7.07;;;8.90;99.90;;;;;;7375656;19;20521;-75
2023/11/15 08:03:43;;;;;;;16.00;7.35;;;8.90;99.90;;;;;;7378759;19;20048;-75
2023/11/15 08:06:09;;;;;;;20.65;7.88;;;9.00;99.90;;;;;;7375168;19;20109;-75
2023/11/15 08:08:37;;;;;;;20.55;7.03;;;9.10;99.90;;;;;;7378425;19;20011;-75
2023/11/15 08:11:04;;;;;;;22.00;7.90;;;9.20;99.90;;;;;;7381362;19;20391;-74
2023/11/15 08:13:31;;;;;;;25.50;8.52;;;9.20;99.90;;;;;;7384574;19;20493;-74
2023/11/15 08:15:57;;;;;;;22.48;8.25;;;9.20;99.90;;;;;;7382218;19;20074;-74
2023/11/15 08:18:26;;;;;;;25.73;9.02;;;9.30;99.90;;;;;;7381781;19;20021;-72
2023/11/15 08:20:53;;;;;;;26.23;8.15;;;9.30;99.90;;;;;;7383124;19;20078;-71
2023/11/15 08:23:19;;;;;;;24.13;9.65;;;9.20;99.90;;;;;;7387427;19;20039;-74
2023/11/15 08:25:48;;;;;;;26.08;8.73;;;9.30;99.90;;;;;;7386247;19;20023;-74
2023/11/15 08:28:14;;;;;;;31.27;10.57;;;9.30;99.90;;;;;;7382363;19;20472;-74
2023/11/15 08:30:40;;;;;;;28.20;10.38;;;9.30;99.90;;;;;;7384022;19;20146;-73
2023/11/15 08:33:08;;;;;;;28.20;11.23;;;9.30;99.90;;;;;;7381098;19;20023;-75
2023/11/15 08:35:34;;;;;;;30.88;10.32;;;9.30;99.90;;;;;;7378440;19;20021;-73
2023/11/15 08:38:00;;;;;;;27.45;11.07;;;9.40;99.90;;;;;;7379062;19;20014;-72
2023/11/15 08:40:27;;;;;;;31.95;11.30;;;9.50;99.90;;;;;;7376243;19;20488;-67
2023/11/15 08:42:54;;;;;;;28.60;12.73;;;9.60;99.90;;;;;;7378586;19;20018;-74
2023/11/15 08:45:20;;;;;;;30.73;12.32;;;9.60;99.90;;;;;;7373397;19;20039;-74
2023/11/15 08:47:47;;;;;;;27.63;12.02;;;9.60;99.90;;;;;;7377337;19;20017;-75
2023/11/15 08:50:14;;;;;;;23.05;11.18;;;9.60;99.90;;;;;;7374740;19;20117;-76
2023/11/15 08:52:42;;;;;;;32.47;12.35;;;9.70;99.90;;;;;;7382643;19;20593;-76
2023/11/15 08:55:11;;;;;;;32.22;13.80;;;9.60;99.90;;;;;;7375686;19;20035;-74
2023/11/15 08:57:40;;;;;;;29.10;13.43;;;9.70;99.90;;;;;;7374154;19;20721;-73
2023/11/15 09:00:15;;;;;;;;;;;9.70;99.90;;;;;;7375701;19;20029;-74
2023/11/15 09:02:47;;;;;;;31.33;13.63;;;9.80;99.90;;;;;;7376202;19;20302;-72
2023/11/15 09:05:19;;;;;;;24.23;13.45;;;9.70;99.90;;;;;;7379847;19;20023;-73
2023/11/15 09:07:46;;;;;;;28.73;12.63;;;9.70;99.90;;;;;;7379529;19;20820;-73
2023/11/15 09:10:13;;;;;;;31.02;12.88;;;9.70;99.90;;;;;;7378639;19;20025;-71
2023/11/15 09:12:41;;;;;;;22.83;10.90;;;9.70;99.90;;;;;;7378356;19;20406;-74
2023/11/15 09:15:11;;;;;;;26.92;11.13;;;9.80;99.90;;;;;;7378763;19;20010;-71
2023/11/15 09:17:46;;;;;;;28.13;10.95;;;9.80;99.90;;;;;;7378336;19;20018;-71
2023/11/15 09:20:19;;;;;;;21.38;9.32;;;9.80;99.90;;;;;;7379740;19;20085;-70
2023/11/15 09:22:48;;;;;;;17.85;8.75;;;9.90;99.90;;;;;;7370837;19;20648;-71
2023/11/15 09:25:30;;;;;;;20.30;10.13;;;9.90;99.90;;;;;;7380120;19;20023;-71
2023/11/15 09:28:02;;;;;;;20.92;10.38;;;10.00;99.90;;;;;;7377035;19;20022;-72
2023/11/15 09:30:31;;;;;;;19.45;9.52;;;10.00;99.90;;;;;;7378111;19;20019;-72
2023/11/15 09:32:59;;;;;;;15.90;9.07;;;10.00;99.90;;;;;;7374089;19;20454;-71
2023/11/15 09:35:28;;;;;;;13.35;7.72;;;10.00;99.90;;;;;;7380767;19;20018;-71
2023/11/15 09:37:57;;;;;;;12.10;7.07;;;10.00;99.90;;;;;;7378453;19;20022;-72
2023/11/15 09:40:25;;;;;;;11.82;6.70;;;10.10;99.90;;;;;;7379557;19;20026;-71
2023/11/15 09:42:54;;;;;;;10.07;6.28;;;10.10;99.90;;;;;;7376084;19;20015;-71
2023/11/15 09:45:23;;;;;;;10.75;6.57;;;10.10;99.90;;;;;;7378487;19;20399;-71
2023/11/15 09:47:51;;;;;;;10.63;5.85;;;10.20;99.90;;;;;;7374469;19;20549;-71
2023/11/15 09:50:22;;;;;;;9.60;5.80;;;10.10;99.90;;;;;;7377234;19;20840;-72
2023/11/15 09:52:50;;;;;;;9.38;5.32;;;10.10;99.90;;;;;;7375473;19;20030;-72
2023/11/15 09:55:18;;;;;;;8.07;5.85;;;10.10;99.90;;;;;;7379499;19;20688;-72
2023/11/15 09:57:46;;;;;;;8.50;5.68;;;10.10;99.90;;;;;;7373597;19;20399;-72
2023/11/15 10:00:15;;;;;;;8.50;5.10;;;10.20;99.90;;;;;;7377494;19;20022;-72
2023/11/15 10:02:42;;;;;;;10.75;4.25;;;10.30;99.90;;;;;;7378508;19;20384;-71
2023/11/15 10:05:21;;;;;;;10.25;4.07;;;10.50;99.90;;;;;;7378867;19;20014;-72
2023/11/15 10:08:04;;;;;;;6.22;3.60;;;10.60;99.90;;;;;;7377995;19;20053;-71
2023/11/15 10:10:31;;;;;;;8.80;3.45;;;10.50;99.90;;;;;;7373856;19;20015;-72
2023/11/15 10:12:58;;;;;;;5.70;3.25;;;10.50;99.90;;;;;;7378038;19;20014;-72
2023/11/15 10:15:27;;;;;;;6.82;2.97;;;10.30;99.90;;;;;;7379506;19;20018;-74
2023/11/15 10:17:53;;;;;;;6.97;2.50;;;10.30;99.90;;;;;;7377111;19;20019;-74
2023/11/15 10:20:25;;;;;;;4.20;2.15;;;10.20;99.90;;;;;;7377430;19;20509;-74
2023/11/15 10:22:57;;;;;;;7.90;2.42;;;10.20;99.90;;;;;;7378169;19;20065;-73
2023/11/15 10:25:31;;;;;;;4.45;2.40;;;10.40;99.90;;;;;;7376592;19;20099;-74
2023/11/15 10:28:10;;;;;;;6.13;2.53;;;10.30;99.90;;;;;;7375273;19;20030;-74
2023/11/15 10:30:36;;;;;;;4.13;1.90;;;10.30;99.90;;;;;;7375126;19;20029;-73
2023/11/15 10:33:10;;;;;;;4.50;2.20;;;10.20;99.90;;;;;;7375172;19;20370;-73
2023/11/15 10:35:38;;;;;;;3.67;1.75;;;10.20;99.90;;;;;;7374651;19;20133;-73
2023/11/15 10:38:14;;;;;;;7.25;2.30;;;10.10;99.90;;;;;;7375344;19;20018;-74
2023/11/15 10:40:49;;;;;;;5.32;1.90;;;10.10;99.90;;;;;;7375990;19;20114;-73
2023/11/15 10:43:16;;;;;;;2.00;1.20;;;10.10;99.90;;;;;;7374938;19;20019;-73
2023/11/15 10:45:46;;;;;;;3.60;1.35;;;10.00;99.90;;;;;;7374224;19;20022;-73
2023/11/15 10:48:18;;;;;;;2.63;1.30;;;10.00;99.90;;;;;;7374230;19;20392;-72
2023/11/15 10:50:46;;;;;;;3.97;1.70;;;10.00;99.90;;;;;;7373233;19;20022;-72
2023/11/15 10:53:14;;;;;;;2.55;1.30;;;10.20;99.90;;;;;;7376535;19;20420;-74
2023/11/15 10:55:41;;;;;;;4.65;1.45;;;10.50;99.90;;;;;;7378183;19;20011;-74
2023/11/15 10:58:11;;;;;;;5.55;1.80;;;10.70;99.90;;;;;;7379182;19;20014;-74
2023/11/15 11:00:41;;;;;;;6.32;1.90;;;10.80;99.90;;;;;;7383209;19;20082;-74
2023/11/15 11:03:08;;;;;;;8.00;2.58;;;10.90;99.90;;;;;;7382399;19;20876;-76
2023/11/15 11:05:50;;;;;;;8.38;2.38;;;10.90;99.90;;;;;;7384413;19;20026;-76
2023/11/15 11:08:19;;;;;;;5.75;2.45;;;10.90;99.90;;;;;;7384126;19;20404;-76
2023/11/15 11:11:20;;;;;;;8.73;2.95;;;10.90;99.90;;;;;;7380605;19;20145;-75
2023/11/15 11:14:30;;;;;;;9.98;3.17;;;11.10;99.90;;;;;;7383337;19;20481;-72
2023/11/15 11:16:58;;;;;;;10.65;3.38;;;11.60;99.90;;;;;;7380347;19;20015;-72
2023/11/15 11:19:27;;;;;;;11.50;3.30;;;11.70;99.90;;;;;;7381598;19;20018;-71
2023/11/15 11:24:32;;;;;;;7.43;1.85;;;11.40;99.90;;;;;;7379992;19;20014;-74
2023/11/15 11:27:24;;;;;;;6.00;1.30;;;11.20;99.90;;;;;;7383524;19;20352;-72
2023/11/15 11:30:02;;;;;;;4.93;1.40;;;10.80;99.90;;;;;;7376495;19;20029;-72
2023/11/15 11:32:35;;;;;;;2.58;0.95;;;10.60;99.90;;;;;;7380040;19;20415;-71
2023/11/15 11:35:07;;;;;;;4.07;1.13;;;10.50;99.90;;;;;;7378252;19;20015;-71
2023/11/15 11:37:44;;;;;;;5.55;1.63;;;10.60;99.90;;;;;;7382116;19;20573;-71
2023/11/15 11:40:14;;;;;;;6.95;1.60;;;11.10;99.90;;;;;;7380604;19;20014;-73
2023/11/15 11:42:44;;;;;;;4.57;1.23;;;11.30;99.90;;;;;;7380531;19;20577;-74
2023/11/15 11:45:12;;;;;;;4.80;1.52;;;11.30;99.90;;;;;;7375810;19;20513;-75
2023/11/15 11:47:40;;;;;;;4.68;1.63;;;11.30;99.90;;;;;;7382764;19;20458;-73
2023/11/15 11:50:07;;;;;;;7.97;2.20;;;11.40;99.90;;;;;;7376705;19;20043;-75
2023/11/15 11:52:36;;;;;;;10.45;2.30;;;11.50;99.90;;;;;;7384559;19;20894;-72
2023/11/15 11:55:05;;;;;;;95.75;82.32;;;11.60;99.90;;;;;;7377486;19;20015;-70
2023/11/15 11:57:31;;;;;;;12.48;2.63;;;11.90;99.90;;;;;;7378650;19;20014;-70
2023/11/15 12:00:01;;;;;;;160.13;132.27;;;12.20;99.90;;;;;;7378696;19;20804;-72
2023/11/15 12:02:35;;;;;;;13.50;3.35;;;12.90;99.90;;;;;;7381677;19;21030;-70
2023/11/15 12:05:02;;;;;;;14.63;2.97;;;13.70;99.90;;;;;;7376286;19;20018;-70
2023/11/15 12:07:29;;;;;;;11.05;2.83;;;13.70;99.90;;;;;;7380550;19;20018;-70
2023/11/15 12:10:03;;;;;;;11.25;2.50;;;13.40;99.90;;;;;;7377147;19;20569;-71
2023/11/15 12:12:30;;;;;;;14.00;3.00;;;13.20;99.90;;;;;;7378644;19;20050;-70
2023/11/15 12:14:59;;;;;;;14.18;3.47;;;13.20;99.90;;;;;;7378593;19;20098;-66
2023/11/15 12:17:39;;;;;;;8.35;2.92;;;13.10;99.90;;;;;;7381515;19;20022;-70
2023/11/15 12:20:27;;;;;;;8.30;2.47;;;12.90;99.90;;;;;;7381363;19;20029;-70
2023/11/15 12:23:12;;;;;;;13.45;3.10;;;12.90;99.90;;;;;;7375461;19;20846;-68
2023/11/15 12:25:54;;;;;;;12.80;2.90;;;13.20;99.90;;;;;;7377468;19;20054;-67
2023/11/15 12:28:25;;;;;;;;;;;13.60;99.90;;;;;;7380929;19;20018;-69
2023/11/15 12:30:53;;;;;;;15.68;3.35;;;14.50;99.90;;;;;;7376901;19;19968;-67
2023/11/15 12:33:20;;;;;;;11.80;2.85;;;14.90;99.90;;;;;;7375588;19;20397;-71
2023/11/15 12:35:47;;;;;;;12.05;3.03;;;14.60;99.90;;;;;;7375868;19;20577;-69
2023/11/15 12:38:14;;;;;;;13.00;3.17;;;14.10;99.90;;;;;;7371427;19;20813;-66
2023/11/15 12:40:42;;;;;;;17.05;4.47;;;13.70;99.90;;;;;;7375994;19;20702;-69
2023/11/15 12:43:22;;;;;;;11.18;3.00;;;13.30;99.90;;;;;;7374727;19;20102;-70
2023/11/15 12:45:54;;;;;;;12.65;3.58;;;13.00;99.90;;;;;;7375297;19;20036;-70
2023/11/15 12:48:21;;;;;;;13.82;3.60;;;12.70;99.90;;;;;;7378027;19;20019;-69
2023/11/15 12:50:48;;;;;;;9.57;2.88;;;12.60;99.90;;;;;;7373720;19;20967;-68
2023/11/15 12:53:21;;;;;;;12.88;3.63;;;12.30;99.90;;;;;;7377946;19;20015;-68
2023/11/15 12:55:54;;;;;;;12.25;2.92;;;12.20;99.90;;;;;;7373722;19;20018;-68
2023/11/15 12:58:33;;;;;;;15.20;3.50;;;12.00;99.90;;;;;;7375101;19;20014;-67